sensor_id;sensor_type;location;lat;lon;timestamp;P1;durP1;ratioP1;P2;durP2;ratioP2
63434;SDS011;68814;50.872;5.306;2023-05-21T00:01:38;10.40;;;6.35;;
63434;SDS011;68814;50.872;5.306;2023-05-21T00:04:04;7.85;;;6.60;;
63434;SDS011;68814;50.872;5.306;2023-05-21T00:06:36;7.88;;;7.03;;
63434;SDS011;68814;50.872;5.306;2023-05-21T00:09:02;8.70;;;6.93;;
63434;SDS011;68814;50.872;5.306;2023-05-21T00:11:29;7.97;;;6.72;;
63434;SDS011;68814;50.872;5.306;2023-05-21T00:13:55;10.57;;;6.90;;
63434;SDS011;68814;50.872;5.306;2023-05-21T00:16:20;9.10;;;6.97;;
63434;SDS011;68814;50.872;5.306;2023-05-21T00:18:47;11.05;;;7.05;;
63434;SDS011;68814;50.872;5.306;2023-05-21T00:21:14;10.93;;;7.00;;
63434;SDS011;68814;50.872;5.306;2023-05-21T00:23:46;11.60;;;7.90;;
63434;SDS011;68814;50.872;5.306;2023-05-21T00:26:15;10.73;;;7.72;;
63434;SDS011;68814;50.872;5.306;2023-05-21T00:28:40;10.05;;;7.78;;
63434;SDS011;68814;50.872;5.306;2023-05-21T00:31:06;11.02;;;7.70;;
63434;SDS011;68814;50.872;5.306;2023-05-21T00:33:31;13.20;;;8.40;;
63434;SDS011;68814;50.872;5.306;2023-05-21T00:35:58;10.75;;;7.57;;
63434;SDS011;68814;50.872;5.306;2023-05-21T00:38:23;10.35;;;8.07;;
63434;SDS011;68814;50.872;5.306;2023-05-21T00:40:51;10.63;;;8.13;;
63434;SDS011;68814;50.872;5.306;2023-05-21T00:43:17;12.20;;;8.95;;
63434;SDS011;68814;50.872;5.306;2023-05-21T00:45:43;10.30;;;8.13;;
63434;SDS011;68814;50.872;5.306;2023-05-21T00:48:10;14.23;;;8.52;;
63434;SDS011;68814;50.872;5.306;2023-05-21T00:50:37;10.95;;;8.20;;
63434;SDS011;68814;50.872;5.306;2023-05-21T00:53:05;11.27;;;8.50;;
63434;SDS011;68814;50.872;5.306;2023-05-21T00:55:35;11.57;;;8.70;;
63434;SDS011;68814;50.872;5.306;2023-05-21T00:58:01;11.07;;;8.63;;
63434;SDS011;68814;50.872;5.306;2023-05-21T01:00:29;12.77;;;9.13;;
63434;SDS011;68814;50.872;5.306;2023-05-21T01:03:02;14.75;;;9.15;;
63434;SDS011;68814;50.872;5.306;2023-05-21T01:05:28;13.48;;;9.05;;
63434;SDS011;68814;50.872;5.306;2023-05-21T01:07:54;13.38;;;10.32;;
63434;SDS011;68814;50.872;5.306;2023-05-21T01:10:22;12.02;;;8.88;;
63434;SDS011;68814;50.872;5.306;2023-05-21T01:12:48;11.15;;;8.25;;
63434;SDS011;68814;50.872;5.306;2023-05-21T01:15:16;10.60;;;9.35;;
63434;SDS011;68814;50.872;5.306;2023-05-21T01:17:42;13.50;;;8.90;;
63434;SDS011;68814;50.872;5.306;2023-05-21T01:20:10;12.80;;;9.73;;
63434;SDS011;68814;50.872;5.306;2023-05-21T01:22:50;12.93;;;9.38;;
63434;SDS011;68814;50.872;5.306;2023-05-21T01:25:17;14.60;;;10.27;;
63434;SDS011;68814;50.872;5.306;2023-05-21T01:27:43;14.05;;;10.35;;
63434;SDS011;68814;50.872;5.306;2023-05-21T01:30:09;15.07;;;10.45;;
63434;SDS011;68814;50.872;5.306;2023-05-21T01:35:26;13.50;;;10.32;;
63434;SDS011;68814;50.872;5.306;2023-05-21T01:38:10;15.07;;;11.43;;
63434;SDS011;68814;50.872;5.306;2023-05-21T01:40:44;15.07;;;10.20;;
63434;SDS011;68814;50.872;5.306;2023-05-21T01:43:11;13.25;;;9.73;;
63434;SDS011;68814;50.872;5.306;2023-05-21T01:45:38;14.02;;;10.45;;
63434;SDS011;68814;50.872;5.306;2023-05-21T01:48:06;14.27;;;9.93;;
63434;SDS011;68814;50.872;5.306;2023-05-21T01:50:33;18.02;;;10.77;;
63434;SDS011;68814;50.872;5.306;2023-05-21T01:53:01;19.00;;;11.43;;
63434;SDS011;68814;50.872;5.306;2023-05-21T01:55:29;15.57;;;11.43;;
63434;SDS011;68814;50.872;5.306;2023-05-21T01:57:56;16.45;;;11.13;;
63434;SDS011;68814;50.872;5.306;2023-05-21T02:00:24;16.70;;;11.23;;
63434;SDS011;68814;50.872;5.306;2023-05-21T02:02:52;14.35;;;10.65;;
63434;SDS011;68814;50.872;5.306;2023-05-21T02:05:18;15.60;;;11.82;;
63434;SDS011;68814;50.872;5.306;2023-05-21T02:07:44;14.32;;;10.50;;
63434;SDS011;68814;50.872;5.306;2023-05-21T02:10:10;15.55;;;10.77;;
63434;SDS011;68814;50.872;5.306;2023-05-21T02:12:36;15.70;;;10.27;;
63434;SDS011;68814;50.872;5.306;2023-05-21T02:15:02;18.00;;;10.80;;
63434;SDS011;68814;50.872;5.306;2023-05-21T02:17:28;14.35;;;10.30;;
63434;SDS011;68814;50.872;5.306;2023-05-21T02:19:58;17.60;;;10.70;;
63434;SDS011;68814;50.872;5.306;2023-05-21T02:22:35;13.88;;;11.18;;
63434;SDS011;68814;50.872;5.306;2023-05-21T02:25:01;14.32;;;10.73;;
63434;SDS011;68814;50.872;5.306;2023-05-21T02:27:27;20.63;;;12.25;;
63434;SDS011;68814;50.872;5.306;2023-05-21T02:29:55;15.35;;;10.80;;
63434;SDS011;68814;50.872;5.306;2023-05-21T02:32:21;15.50;;;11.15;;
63434;SDS011;68814;50.872;5.306;2023-05-21T02:34:47;14.10;;;10.77;;
63434;SDS011;68814;50.872;5.306;2023-05-21T02:37:14;16.40;;;12.30;;
63434;SDS011;68814;50.872;5.306;2023-05-21T02:39:39;14.02;;;10.63;;
63434;SDS011;68814;50.872;5.306;2023-05-21T02:42:05;13.30;;;11.18;;
63434;SDS011;68814;50.872;5.306;2023-05-21T02:44:31;17.45;;;11.13;;
63434;SDS011;68814;50.872;5.306;2023-05-21T02:46:56;19.88;;;11.45;;
63434;SDS011;68814;50.872;5.306;2023-05-21T02:49:22;16.42;;;10.63;;
63434;SDS011;68814;50.872;5.306;2023-05-21T02:51:47;16.98;;;11.32;;
63434;SDS011;68814;50.872;5.306;2023-05-21T02:54:13;18.08;;;11.57;;
63434;SDS011;68814;50.872;5.306;2023-05-21T02:56:39;18.33;;;11.75;;
63434;SDS011;68814;50.872;5.306;2023-05-21T02:59:05;16.27;;;11.57;;
63434;SDS011;68814;50.872;5.306;2023-05-21T03:01:31;18.30;;;11.48;;
63434;SDS011;68814;50.872;5.306;2023-05-21T03:03:56;14.05;;;11.70;;
63434;SDS011;68814;50.872;5.306;2023-05-21T03:06:22;17.25;;;11.65;;
63434;SDS011;68814;50.872;5.306;2023-05-21T03:08:48;14.13;;;11.23;;
63434;SDS011;68814;50.872;5.306;2023-05-21T03:11:13;19.65;;;12.30;;
63434;SDS011;68814;50.872;5.306;2023-05-21T03:13:39;15.05;;;11.38;;
63434;SDS011;68814;50.872;5.306;2023-05-21T03:16:06;17.77;;;11.70;;
63434;SDS011;68814;50.872;5.306;2023-05-21T03:18:32;14.98;;;10.85;;
63434;SDS011;68814;50.872;5.306;2023-05-21T03:20:57;17.08;;;11.02;;
63434;SDS011;68814;50.872;5.306;2023-05-21T03:23:23;13.68;;;11.13;;
63434;SDS011;68814;50.872;5.306;2023-05-21T03:25:49;16.88;;;11.27;;
63434;SDS011;68814;50.872;5.306;2023-05-21T03:28:16;12.50;;;10.27;;
63434;SDS011;68814;50.872;5.306;2023-05-21T03:30:42;16.08;;;10.80;;
63434;SDS011;68814;50.872;5.306;2023-05-21T03:33:14;15.10;;;11.18;;
63434;SDS011;68814;50.872;5.306;2023-05-21T03:35:40;16.52;;;11.23;;
63434;SDS011;68814;50.872;5.306;2023-05-21T03:38:06;17.85;;;10.90;;
63434;SDS011;68814;50.872;5.306;2023-05-21T03:40:31;14.70;;;11.43;;
63434;SDS011;68814;50.872;5.306;2023-05-21T03:42:57;15.20;;;10.45;;
63434;SDS011;68814;50.872;5.306;2023-05-21T03:45:23;14.30;;;10.25;;
63434;SDS011;68814;50.872;5.306;2023-05-21T03:47:48;16.35;;;10.32;;
63434;SDS011;68814;50.872;5.306;2023-05-21T03:50:14;17.90;;;11.55;;
63434;SDS011;68814;50.872;5.306;2023-05-21T03:52:40;16.35;;;11.00;;
63434;SDS011;68814;50.872;5.306;2023-05-21T03:55:06;16.83;;;11.75;;
63434;SDS011;68814;50.872;5.306;2023-05-21T03:57:32;16.85;;;10.90;;
63434;SDS011;68814;50.872;5.306;2023-05-21T03:59:58;18.50;;;12.35;;
63434;SDS011;68814;50.872;5.306;2023-05-21T04:02:26;16.95;;;10.75;;
63434;SDS011;68814;50.872;5.306;2023-05-21T04:04:52;16.70;;;10.57;;
63434;SDS011;68814;50.872;5.306;2023-05-21T04:07:19;15.57;;;10.18;;
63434;SDS011;68814;50.872;5.306;2023-05-21T04:09:46;13.65;;;9.60;;
63434;SDS011;68814;50.872;5.306;2023-05-21T04:12:12;16.17;;;10.00;;
63434;SDS011;68814;50.872;5.306;2023-05-21T04:14:37;14.25;;;9.43;;
63434;SDS011;68814;50.872;5.306;2023-05-21T04:17:03;14.27;;;10.32;;
63434;SDS011;68814;50.872;5.306;2023-05-21T04:19:30;12.32;;;10.63;;
63434;SDS011;68814;50.872;5.306;2023-05-21T04:21:56;13.73;;;10.13;;
63434;SDS011;68814;50.872;5.306;2023-05-21T04:24:22;14.05;;;9.90;;
63434;SDS011;68814;50.872;5.306;2023-05-21T04:26:48;16.38;;;10.55;;
63434;SDS011;68814;50.872;5.306;2023-05-21T04:29:14;14.18;;;9.68;;
63434;SDS011;68814;50.872;5.306;2023-05-21T04:31:45;13.45;;;9.98;;
63434;SDS011;68814;50.872;5.306;2023-05-21T04:34:13;14.00;;;10.23;;
63434;SDS011;68814;50.872;5.306;2023-05-21T04:36:42;14.32;;;10.40;;
63434;SDS011;68814;50.872;5.306;2023-05-21T04:39:09;13.07;;;10.55;;
63434;SDS011;68814;50.872;5.306;2023-05-21T04:41:36;12.20;;;9.70;;
63434;SDS011;68814;50.872;5.306;2023-05-21T04:44:03;14.73;;;10.10;;
63434;SDS011;68814;50.872;5.306;2023-05-21T04:46:32;11.98;;;9.38;;
63434;SDS011;68814;50.872;5.306;2023-05-21T04:48:59;13.60;;;9.82;;
63434;SDS011;68814;50.872;5.306;2023-05-21T04:51:28;14.13;;;9.20;;
63434;SDS011;68814;50.872;5.306;2023-05-21T04:53:54;13.52;;;9.98;;
63434;SDS011;68814;50.872;5.306;2023-05-21T04:56:20;17.45;;;10.27;;
63434;SDS011;68814;50.872;5.306;2023-05-21T04:58:54;13.60;;;9.45;;
63434;SDS011;68814;50.872;5.306;2023-05-21T05:01:20;14.80;;;9.90;;
63434;SDS011;68814;50.872;5.306;2023-05-21T05:03:53;13.93;;;9.30;;
63434;SDS011;68814;50.872;5.306;2023-05-21T05:06:19;12.40;;;9.35;;
63434;SDS011;68814;50.872;5.306;2023-05-21T05:08:45;12.45;;;8.98;;
63434;SDS011;68814;50.872;5.306;2023-05-21T05:11:11;12.82;;;9.25;;
63434;SDS011;68814;50.872;5.306;2023-05-21T05:13:38;10.48;;;8.98;;
63434;SDS011;68814;50.872;5.306;2023-05-21T05:16:05;12.88;;;8.88;;
63434;SDS011;68814;50.872;5.306;2023-05-21T05:18:32;13.95;;;9.38;;
63434;SDS011;68814;50.872;5.306;2023-05-21T05:20:58;11.45;;;8.27;;
63434;SDS011;68814;50.872;5.306;2023-05-21T05:23:25;13.07;;;8.93;;
63434;SDS011;68814;50.872;5.306;2023-05-21T05:25:50;10.88;;;8.95;;
63434;SDS011;68814;50.872;5.306;2023-05-21T05:28:16;14.63;;;8.00;;
63434;SDS011;68814;50.872;5.306;2023-05-21T05:30:42;13.20;;;8.55;;
63434;SDS011;68814;50.872;5.306;2023-05-21T05:33:08;16.17;;;9.20;;
63434;SDS011;68814;50.872;5.306;2023-05-21T05:35:33;12.05;;;8.30;;
63434;SDS011;68814;50.872;5.306;2023-05-21T05:37:59;11.95;;;9.20;;
63434;SDS011;68814;50.872;5.306;2023-05-21T05:40:25;11.32;;;8.75;;
63434;SDS011;68814;50.872;5.306;2023-05-21T05:42:50;12.40;;;8.77;;
63434;SDS011;68814;50.872;5.306;2023-05-21T05:45:17;11.82;;;8.77;;
63434;SDS011;68814;50.872;5.306;2023-05-21T05:47:43;11.52;;;8.82;;
63434;SDS011;68814;50.872;5.306;2023-05-21T05:50:09;12.48;;;8.23;;
63434;SDS011;68814;50.872;5.306;2023-05-21T05:52:35;10.32;;;8.10;;
63434;SDS011;68814;50.872;5.306;2023-05-21T05:55:00;10.80;;;8.15;;
63434;SDS011;68814;50.872;5.306;2023-05-21T05:57:26;11.25;;;8.88;;
63434;SDS011;68814;50.872;5.306;2023-05-21T05:59:52;11.45;;;9.02;;
63434;SDS011;68814;50.872;5.306;2023-05-21T06:02:17;11.57;;;8.63;;
63434;SDS011;68814;50.872;5.306;2023-05-21T06:04:43;10.95;;;8.80;;
63434;SDS011;68814;50.872;5.306;2023-05-21T06:07:09;10.38;;;8.20;;
63434;SDS011;68814;50.872;5.306;2023-05-21T06:09:35;10.00;;;8.63;;
63434;SDS011;68814;50.872;5.306;2023-05-21T06:12:03;10.70;;;8.40;;
63434;SDS011;68814;50.872;5.306;2023-05-21T06:14:29;13.50;;;8.30;;
63434;SDS011;68814;50.872;5.306;2023-05-21T06:16:55;10.32;;;8.05;;
63434;SDS011;68814;50.872;5.306;2023-05-21T06:21:46;11.23;;;8.30;;
63434;SDS011;68814;50.872;5.306;2023-05-21T06:24:12;8.98;;;7.93;;
63434;SDS011;68814;50.872;5.306;2023-05-21T06:26:38;11.15;;;7.93;;
63434;SDS011;68814;50.872;5.306;2023-05-21T06:29:03;12.55;;;8.63;;
63434;SDS011;68814;50.872;5.306;2023-05-21T06:31:29;11.02;;;7.97;;
63434;SDS011;68814;50.872;5.306;2023-05-21T06:33:56;13.20;;;8.75;;
63434;SDS011;68814;50.872;5.306;2023-05-21T06:36:23;12.05;;;8.05;;
63434;SDS011;68814;50.872;5.306;2023-05-21T06:38:53;11.48;;;8.45;;
63434;SDS011;68814;50.872;5.306;2023-05-21T06:41:20;11.93;;;7.95;;
63434;SDS011;68814;50.872;5.306;2023-05-21T06:43:46;9.93;;;7.70;;
63434;SDS011;68814;50.872;5.306;2023-05-21T06:46:11;11.05;;;8.55;;
63434;SDS011;68814;50.872;5.306;2023-05-21T06:48:37;12.32;;;7.93;;
63434;SDS011;68814;50.872;5.306;2023-05-21T06:51:03;9.50;;;8.07;;
63434;SDS011;68814;50.872;5.306;2023-05-21T06:53:28;10.20;;;7.60;;
63434;SDS011;68814;50.872;5.306;2023-05-21T06:55:54;10.40;;;8.27;;
63434;SDS011;68814;50.872;5.306;2023-05-21T06:58:20;9.73;;;7.95;;
63434;SDS011;68814;50.872;5.306;2023-05-21T07:00:46;11.93;;;8.25;;
63434;SDS011;68814;50.872;5.306;2023-05-21T07:03:12;11.10;;;8.60;;
63434;SDS011;68814;50.872;5.306;2023-05-21T07:05:38;12.45;;;8.50;;
63434;SDS011;68814;50.872;5.306;2023-05-21T07:08:03;12.82;;;8.05;;
63434;SDS011;68814;50.872;5.306;2023-05-21T07:10:29;10.57;;;8.15;;
63434;SDS011;68814;50.872;5.306;2023-05-21T07:12:55;11.60;;;8.73;;
63434;SDS011;68814;50.872;5.306;2023-05-21T07:15:20;11.73;;;8.13;;
63434;SDS011;68814;50.872;5.306;2023-05-21T07:17:46;10.02;;;8.02;;
63434;SDS011;68814;50.872;5.306;2023-05-21T07:20:12;11.18;;;8.70;;
63434;SDS011;68814;50.872;5.306;2023-05-21T07:22:38;11.25;;;8.00;;
63434;SDS011;68814;50.872;5.306;2023-05-21T07:25:04;11.35;;;8.85;;
63434;SDS011;68814;50.872;5.306;2023-05-21T07:27:30;14.95;;;9.13;;
63434;SDS011;68814;50.872;5.306;2023-05-21T07:29:56;14.00;;;8.73;;
63434;SDS011;68814;50.872;5.306;2023-05-21T07:32:21;9.85;;;8.07;;
63434;SDS011;68814;50.872;5.306;2023-05-21T07:34:47;10.95;;;8.05;;
63434;SDS011;68814;50.872;5.306;2023-05-21T07:37:13;10.82;;;8.20;;
63434;SDS011;68814;50.872;5.306;2023-05-21T07:39:38;12.05;;;8.68;;
63434;SDS011;68814;50.872;5.306;2023-05-21T07:42:04;15.02;;;8.95;;
63434;SDS011;68814;50.872;5.306;2023-05-21T07:44:30;13.15;;;8.35;;
63434;SDS011;68814;50.872;5.306;2023-05-21T07:46:56;10.45;;;8.30;;
63434;SDS011;68814;50.872;5.306;2023-05-21T07:49:21;10.85;;;8.52;;
63434;SDS011;68814;50.872;5.306;2023-05-21T07:51:48;10.15;;;8.32;;
63434;SDS011;68814;50.872;5.306;2023-05-21T07:54:14;11.23;;;8.32;;
63434;SDS011;68814;50.872;5.306;2023-05-21T07:56:40;10.15;;;7.97;;
63434;SDS011;68814;50.872;5.306;2023-05-21T07:59:06;10.55;;;7.95;;
63434;SDS011;68814;50.872;5.306;2023-05-21T08:01:31;13.15;;;8.57;;
63434;SDS011;68814;50.872;5.306;2023-05-21T08:03:57;9.88;;;8.80;;
63434;SDS011;68814;50.872;5.306;2023-05-21T08:06:29;14.25;;;9.50;;
63434;SDS011;68814;50.872;5.306;2023-05-21T08:08:55;11.10;;;8.50;;
63434;SDS011;68814;50.872;5.306;2023-05-21T08:11:21;10.40;;;8.73;;
63434;SDS011;68814;50.872;5.306;2023-05-21T08:13:47;10.57;;;8.52;;
63434;SDS011;68814;50.872;5.306;2023-05-21T08:16:13;12.18;;;8.77;;
63434;SDS011;68814;50.872;5.306;2023-05-21T08:18:40;11.63;;;8.63;;
63434;SDS011;68814;50.872;5.306;2023-05-21T08:21:06;12.50;;;9.57;;
63434;SDS011;68814;50.872;5.306;2023-05-21T08:23:31;14.88;;;9.18;;
63434;SDS011;68814;50.872;5.306;2023-05-21T08:25:57;11.13;;;8.68;;
63434;SDS011;68814;50.872;5.306;2023-05-21T08:28:22;11.70;;;9.10;;
63434;SDS011;68814;50.872;5.306;2023-05-21T08:30:48;10.27;;;8.68;;
63434;SDS011;68814;50.872;5.306;2023-05-21T08:33:14;11.73;;;9.85;;
63434;SDS011;68814;50.872;5.306;2023-05-21T08:35:39;11.18;;;9.75;;
63434;SDS011;68814;50.872;5.306;2023-05-21T08:38:05;12.02;;;9.77;;
63434;SDS011;68814;50.872;5.306;2023-05-21T08:40:31;13.48;;;9.27;;
63434;SDS011;68814;50.872;5.306;2023-05-21T08:42:58;10.10;;;9.07;;
63434;SDS011;68814;50.872;5.306;2023-05-21T08:45:25;10.32;;;8.80;;
63434;SDS011;68814;50.872;5.306;2023-05-21T08:47:55;13.23;;;8.93;;
63434;SDS011;68814;50.872;5.306;2023-05-21T08:50:23;10.27;;;8.40;;
63434;SDS011;68814;50.872;5.306;2023-05-21T08:52:51;10.68;;;8.88;;
63434;SDS011;68814;50.872;5.306;2023-05-21T08:55:19;9.18;;;7.00;;
63434;SDS011;68814;50.872;5.306;2023-05-21T08:57:47;15.75;;;9.48;;
63434;SDS011;68814;50.872;5.306;2023-05-21T09:00:14;13.02;;;9.65;;
63434;SDS011;68814;50.872;5.306;2023-05-21T09:02:40;11.20;;;9.18;;
63434;SDS011;68814;50.872;5.306;2023-05-21T09:05:07;9.93;;;8.93;;
63434;SDS011;68814;50.872;5.306;2023-05-21T09:07:47;13.02;;;9.77;;
63434;SDS011;68814;50.872;5.306;2023-05-21T09:10:35;16.55;;;10.82;;
63434;SDS011;68814;50.872;5.306;2023-05-21T09:13:03;12.17;;;10.13;;
63434;SDS011;68814;50.872;5.306;2023-05-21T09:15:29;12.30;;;9.75;;
63434;SDS011;68814;50.872;5.306;2023-05-21T09:17:55;14.48;;;9.02;;
63434;SDS011;68814;50.872;5.306;2023-05-21T09:20:24;10.90;;;9.20;;
63434;SDS011;68814;50.872;5.306;2023-05-21T09:22:52;11.30;;;10.15;;
63434;SDS011;68814;50.872;5.306;2023-05-21T09:25:23;11.98;;;10.55;;
63434;SDS011;68814;50.872;5.306;2023-05-21T09:27:51;12.90;;;11.30;;
63434;SDS011;68814;50.872;5.306;2023-05-21T09:30:19;13.88;;;10.40;;
63434;SDS011;68814;50.872;5.306;2023-05-21T09:32:44;13.95;;;11.02;;
63434;SDS011;68814;50.872;5.306;2023-05-21T09:35:15;13.63;;;10.57;;
63434;SDS011;68814;50.872;5.306;2023-05-21T09:37:46;11.50;;;9.88;;
63434;SDS011;68814;50.872;5.306;2023-05-21T09:40:13;14.13;;;10.43;;
63434;SDS011;68814;50.872;5.306;2023-05-21T09:42:46;12.10;;;9.45;;
63434;SDS011;68814;50.872;5.306;2023-05-21T09:45:11;13.07;;;9.20;;
63434;SDS011;68814;50.872;5.306;2023-05-21T09:47:42;11.77;;;9.38;;
63434;SDS011;68814;50.872;5.306;2023-05-21T09:50:12;14.77;;;10.88;;
63434;SDS011;68814;50.872;5.306;2023-05-21T09:52:41;12.40;;;9.68;;
63434;SDS011;68814;50.872;5.306;2023-05-21T09:55:11;13.00;;;11.00;;
63434;SDS011;68814;50.872;5.306;2023-05-21T09:57:44;13.73;;;11.05;;
63434;SDS011;68814;50.872;5.306;2023-05-21T10:02:54;16.05;;;10.30;;
63434;SDS011;68814;50.872;5.306;2023-05-21T10:05:24;11.82;;;10.57;;
63434;SDS011;68814;50.872;5.306;2023-05-21T10:08:03;11.50;;;9.50;;
63434;SDS011;68814;50.872;5.306;2023-05-21T10:10:29;13.38;;;10.00;;
63434;SDS011;68814;50.872;5.306;2023-05-21T10:13:05;16.40;;;10.95;;
63434;SDS011;68814;50.872;5.306;2023-05-21T10:15:37;20.70;;;10.68;;
63434;SDS011;68814;50.872;5.306;2023-05-21T10:18:04;10.95;;;9.43;;
63434;SDS011;68814;50.872;5.306;2023-05-21T10:20:31;13.88;;;10.70;;
63434;SDS011;68814;50.872;5.306;2023-05-21T10:22:57;13.48;;;11.18;;
63434;SDS011;68814;50.872;5.306;2023-05-21T10:25:24;14.82;;;10.73;;
63434;SDS011;68814;50.872;5.306;2023-05-21T10:27:53;17.52;;;10.95;;
63434;SDS011;68814;50.872;5.306;2023-05-21T10:30:20;14.27;;;10.57;;
63434;SDS011;68814;50.872;5.306;2023-05-21T10:32:47;15.07;;;10.77;;
63434;SDS011;68814;50.872;5.306;2023-05-21T10:35:17;13.60;;;10.35;;
63434;SDS011;68814;50.872;5.306;2023-05-21T10:37:43;12.45;;;10.32;;
63434;SDS011;68814;50.872;5.306;2023-05-21T10:40:09;13.55;;;10.52;;
63434;SDS011;68814;50.872;5.306;2023-05-21T10:51:02;12.82;;;9.50;;
63434;SDS011;68814;50.872;5.306;2023-05-21T10:56:53;12.27;;;10.48;;
63434;SDS011;68814;50.872;5.306;2023-05-21T11:02:10;12.23;;;8.73;;
63434;SDS011;68814;50.872;5.306;2023-05-21T11:04:37;15.63;;;10.77;;
63434;SDS011;68814;50.872;5.306;2023-05-21T11:07:06;14.60;;;11.90;;
63434;SDS011;68814;50.872;5.306;2023-05-21T11:09:32;18.05;;;11.40;;
63434;SDS011;68814;50.872;5.306;2023-05-21T11:11:58;16.25;;;11.48;;
63434;SDS011;68814;50.872;5.306;2023-05-21T11:16:59;11.68;;;10.38;;
63434;SDS011;68814;50.872;5.306;2023-05-21T11:19:35;12.40;;;10.68;;
63434;SDS011;68814;50.872;5.306;2023-05-21T11:24:48;17.85;;;10.73;;
63434;SDS011;68814;50.872;5.306;2023-05-21T11:32:38;13.68;;;10.95;;
63434;SDS011;68814;50.872;5.306;2023-05-21T11:35:26;13.32;;;10.43;;
63434;SDS011;68814;50.872;5.306;2023-05-21T11:37:54;12.45;;;10.73;;
63434;SDS011;68814;50.872;5.306;2023-05-21T11:40:23;11.98;;;10.70;;
63434;SDS011;68814;50.872;5.306;2023-05-21T11:42:51;11.50;;;9.90;;
63434;SDS011;68814;50.872;5.306;2023-05-21T11:45:18;21.85;;;11.38;;
63434;SDS011;68814;50.872;5.306;2023-05-21T11:47:45;13.43;;;11.43;;
63434;SDS011;68814;50.872;5.306;2023-05-21T11:50:13;13.07;;;11.68;;
63434;SDS011;68814;50.872;5.306;2023-05-21T11:52:39;10.48;;;9.32;;
63434;SDS011;68814;50.872;5.306;2023-05-21T11:55:08;11.50;;;10.35;;
63434;SDS011;68814;50.872;5.306;2023-05-21T11:57:35;13.15;;;10.25;;
63434;SDS011;68814;50.872;5.306;2023-05-21T12:00:01;12.77;;;10.77;;
63434;SDS011;68814;50.872;5.306;2023-05-21T12:02:37;13.77;;;11.30;;
63434;SDS011;68814;50.872;5.306;2023-05-21T12:05:07;12.32;;;10.95;;
63434;SDS011;68814;50.872;5.306;2023-05-21T12:07:33;13.50;;;10.82;;
63434;SDS011;68814;50.872;5.306;2023-05-21T12:09:59;12.88;;;9.93;;
63434;SDS011;68814;50.872;5.306;2023-05-21T12:12:26;13.55;;;10.85;;
63434;SDS011;68814;50.872;5.306;2023-05-21T12:14:53;10.15;;;9.05;;
63434;SDS011;68814;50.872;5.306;2023-05-21T12:17:23;12.73;;;10.95;;
63434;SDS011;68814;50.872;5.306;2023-05-21T12:19:53;14.00;;;11.55;;
63434;SDS011;68814;50.872;5.306;2023-05-21T12:22:23;13.30;;;11.23;;
63434;SDS011;68814;50.872;5.306;2023-05-21T12:24:49;13.98;;;10.48;;
63434;SDS011;68814;50.872;5.306;2023-05-21T12:27:15;12.85;;;10.38;;
63434;SDS011;68814;50.872;5.306;2023-05-21T12:29:47;12.95;;;11.38;;
63434;SDS011;68814;50.872;5.306;2023-05-21T12:32:15;12.50;;;11.30;;
63434;SDS011;68814;50.872;5.306;2023-05-21T12:34:51;10.57;;;9.55;;
63434;SDS011;68814;50.872;5.306;2023-05-21T12:37:25;14.65;;;10.73;;
63434;SDS011;68814;50.872;5.306;2023-05-21T12:39:56;13.95;;;10.63;;
63434;SDS011;68814;50.872;5.306;2023-05-21T12:42:27;10.18;;;8.95;;
63434;SDS011;68814;50.872;5.306;2023-05-21T12:44:55;12.43;;;10.38;;
63434;SDS011;68814;50.872;5.306;2023-05-21T12:47:24;16.23;;;10.90;;
63434;SDS011;68814;50.872;5.306;2023-05-21T12:49:52;11.73;;;10.43;;
63434;SDS011;68814;50.872;5.306;2023-05-21T12:52:21;12.63;;;10.88;;
63434;SDS011;68814;50.872;5.306;2023-05-21T12:54:49;13.20;;;10.02;;
63434;SDS011;68814;50.872;5.306;2023-05-21T12:57:20;13.43;;;10.60;;
63434;SDS011;68814;50.872;5.306;2023-05-21T12:59:49;17.40;;;10.60;;
63434;SDS011;68814;50.872;5.306;2023-05-21T13:02:17;14.18;;;10.70;;
63434;SDS011;68814;50.872;5.306;2023-05-21T13:04:53;11.73;;;9.15;;
63434;SDS011;68814;50.872;5.306;2023-05-21T13:07:24;13.77;;;10.15;;
63434;SDS011;68814;50.872;5.306;2023-05-21T13:09:51;13.63;;;9.90;;
63434;SDS011;68814;50.872;5.306;2023-05-21T13:12:18;10.95;;;8.80;;
63434;SDS011;68814;50.872;5.306;2023-05-21T13:14:59;12.88;;;11.05;;
63434;SDS011;68814;50.872;5.306;2023-05-21T13:17:25;10.85;;;9.45;;
63434;SDS011;68814;50.872;5.306;2023-05-21T13:22:40;14.32;;;11.43;;
63434;SDS011;68814;50.872;5.306;2023-05-21T13:25:11;12.02;;;10.15;;
63434;SDS011;68814;50.872;5.306;2023-05-21T13:27:42;11.75;;;10.40;;
63434;SDS011;68814;50.872;5.306;2023-05-21T13:30:08;16.13;;;9.88;;
63434;SDS011;68814;50.872;5.306;2023-05-21T13:32:37;14.13;;;11.35;;
63434;SDS011;68814;50.872;5.306;2023-05-21T13:35:04;11.73;;;9.15;;
63434;SDS011;68814;50.872;5.306;2023-05-21T13:37:30;11.60;;;9.10;;
63434;SDS011;68814;50.872;5.306;2023-05-21T13:39:56;10.10;;;9.00;;
63434;SDS011;68814;50.872;5.306;2023-05-21T13:42:21;11.30;;;8.98;;
63434;SDS011;68814;50.872;5.306;2023-05-21T13:44:47;10.27;;;9.10;;
63434;SDS011;68814;50.872;5.306;2023-05-21T13:47:14;10.18;;;8.57;;
63434;SDS011;68814;50.872;5.306;2023-05-21T13:49:40;9.85;;;8.95;;
63434;SDS011;68814;50.872;5.306;2023-05-21T13:52:07;10.77;;;8.32;;
63434;SDS011;68814;50.872;5.306;2023-05-21T13:54:33;13.13;;;8.35;;
63434;SDS011;68814;50.872;5.306;2023-05-21T13:56:59;12.55;;;9.57;;
63434;SDS011;68814;50.872;5.306;2023-05-21T13:59:25;9.90;;;8.30;;
63434;SDS011;68814;50.872;5.306;2023-05-21T14:01:51;11.07;;;9.35;;
63434;SDS011;68814;50.872;5.306;2023-05-21T14:04:17;9.90;;;8.90;;
63434;SDS011;68814;50.872;5.306;2023-05-21T14:06:43;9.80;;;8.77;;
63434;SDS011;68814;50.872;5.306;2023-05-21T14:09:12;12.30;;;9.27;;
63434;SDS011;68814;50.872;5.306;2023-05-21T14:11:38;10.90;;;8.63;;
63434;SDS011;68814;50.872;5.306;2023-05-21T14:14:04;12.20;;;9.20;;
63434;SDS011;68814;50.872;5.306;2023-05-21T14:16:30;11.27;;;8.68;;
63434;SDS011;68814;50.872;5.306;2023-05-21T14:18:56;10.15;;;8.48;;
63434;SDS011;68814;50.872;5.306;2023-05-21T14:21:22;10.43;;;9.32;;
63434;SDS011;68814;50.872;5.306;2023-05-21T14:23:48;10.32;;;8.43;;
63434;SDS011;68814;50.872;5.306;2023-05-21T14:26:14;10.77;;;9.35;;
63434;SDS011;68814;50.872;5.306;2023-05-21T14:28:40;9.85;;;8.82;;
63434;SDS011;68814;50.872;5.306;2023-05-21T14:31:06;11.18;;;8.60;;
63434;SDS011;68814;50.872;5.306;2023-05-21T14:33:32;9.63;;;8.45;;
63434;SDS011;68814;50.872;5.306;2023-05-21T14:36:00;13.73;;;9.27;;
63434;SDS011;68814;50.872;5.306;2023-05-21T14:38:26;9.57;;;8.63;;
63434;SDS011;68814;50.872;5.306;2023-05-21T14:40:52;10.07;;;8.05;;
63434;SDS011;68814;50.872;5.306;2023-05-21T14:43:18;9.15;;;8.25;;
63434;SDS011;68814;50.872;5.306;2023-05-21T14:45:44;9.73;;;8.65;;
63434;SDS011;68814;50.872;5.306;2023-05-21T14:48:10;11.50;;;8.98;;
63434;SDS011;68814;50.872;5.306;2023-05-21T14:50:36;10.30;;;7.90;;
63434;SDS011;68814;50.872;5.306;2023-05-21T14:53:06;9.85;;;7.97;;
63434;SDS011;68814;50.872;5.306;2023-05-21T14:55:33;12.68;;;8.75;;
63434;SDS011;68814;50.872;5.306;2023-05-21T14:58:00;10.40;;;8.65;;
63434;SDS011;68814;50.872;5.306;2023-05-21T15:00:27;9.63;;;7.43;;
63434;SDS011;68814;50.872;5.306;2023-05-21T15:02:53;9.98;;;8.98;;
63434;SDS011;68814;50.872;5.306;2023-05-21T15:05:18;9.10;;;6.95;;
63434;SDS011;68814;50.872;5.306;2023-05-21T15:07:44;10.90;;;8.73;;